sensor_id;sensor_type;location;lat;lon;timestamp;pressure;altitude;pressure_sealevel;temperature;humidity
61814;BME280;73144;-35.164;149.098;2024-02-21T00:01:52;94388.15;;;17.22;67.79
61814;BME280;73144;-35.164;149.098;2024-02-21T00:04:20;94389.25;;;17.04;67.52
61814;BME280;73144;-35.164;149.098;2024-02-21T00:06:49;94388.40;;;17.08;66.88
61814;BME280;73144;-35.164;149.098;2024-02-21T00:09:18;94381.99;;;17.19;67.64
61814;BME280;73144;-35.164;149.098;2024-02-21T00:11:46;94375.20;;;17.20;66.93
61814;BME280;73144;-35.164;149.098;2024-02-21T00:14:16;94371.40;;;17.30;67.11
61814;BME280;73144;-35.164;149.098;2024-02-21T00:16:44;94371.02;;;17.04;67.07
61814;BME280;73144;-35.164;149.098;2024-02-21T00:19:13;94366.32;;;17.14;67.16
61814;BME280;73144;-35.164;149.098;2024-02-21T00:21:43;94363.73;;;17.72;67.69
61814;BME280;73144;-35.164;149.098;2024-02-21T00:24:12;94366.91;;;17.56;66.72
61814;BME280;73144;-35.164;149.098;2024-02-21T00:26:41;94363.75;;;17.64;66.02
61814;BME280;73144;-35.164;149.098;2024-02-21T00:29:10;94365.75;;;17.67;65.68
61814;BME280;73144;-35.164;149.098;2024-02-21T00:31:39;94361.97;;;17.37;65.48
61814;BME280;73144;-35.164;149.098;2024-02-21T00:34:08;94359.69;;;17.39;66.15
61814;BME280;73144;-35.164;149.098;2024-02-21T00:36:36;94360.66;;;17.42;65.98
61814;BME280;73144;-35.164;149.098;2024-02-21T00:39:05;94361.77;;;17.64;66.08
61814;BME280;73144;-35.164;149.098;2024-02-21T00:41:34;94363.94;;;17.94;66.03
61814;BME280;73144;-35.164;149.098;2024-02-21T00:44:04;94363.96;;;17.54;65.67
61814;BME280;73144;-35.164;149.098;2024-02-21T00:46:32;94359.74;;;17.87;66.31
61814;BME280;73144;-35.164;149.098;2024-02-21T00:49:02;94361.38;;;17.96;66.55
61814;BME280;73144;-35.164;149.098;2024-02-21T00:51:31;94357.09;;;17.95;66.56
61814;BME280;73144;-35.164;149.098;2024-02-21T00:54:00;94352.51;;;17.70;65.45
61814;BME280;73144;-35.164;149.098;2024-02-21T00:56:29;94352.60;;;18.01;65.69
61814;BME280;73144;-35.164;149.098;2024-02-21T00:58:57;94350.40;;;17.79;65.84
61814;BME280;73144;-35.164;149.098;2024-02-21T01:01:26;94347.35;;;17.89;66.17
61814;BME280;73144;-35.164;149.098;2024-02-21T01:03:55;94339.36;;;17.93;66.16
61814;BME280;73144;-35.164;149.098;2024-02-21T01:06:25;94332.24;;;18.03;66.53
61814;BME280;73144;-35.164;149.098;2024-02-21T01:08:54;94331.05;;;17.98;65.87
61814;BME280;73144;-35.164;149.098;2024-02-21T01:11:23;94325.89;;;18.01;66.23
61814;BME280;73144;-35.164;149.098;2024-02-21T01:13:52;94327.14;;;18.09;66.44
61814;BME280;73144;-35.164;149.098;2024-02-21T01:16:21;94327.30;;;18.30;65.19
61814;BME280;73144;-35.164;149.098;2024-02-21T01:18:50;94318.84;;;18.49;65.64
61814;BME280;73144;-35.164;149.098;2024-02-21T01:21:18;94324.17;;;18.78;64.66
61814;BME280;73144;-35.164;149.098;2024-02-21T01:23:48;94320.13;;;18.63;65.86
61814;BME280;73144;-35.164;149.098;2024-02-21T01:26:17;94311.12;;;18.71;64.82
61814;BME280;73144;-35.164;149.098;2024-02-21T01:28:45;94310.89;;;18.87;63.95
61814;BME280;73144;-35.164;149.098;2024-02-21T01:31:15;94308.78;;;19.20;63.22
61814;BME280;73144;-35.164;149.098;2024-02-21T01:33:44;94302.75;;;18.98;63.74
61814;BME280;73144;-35.164;149.098;2024-02-21T01:36:13;94300.93;;;18.70;63.64
61814;BME280;73144;-35.164;149.098;2024-02-21T01:38:43;94295.28;;;18.89;63.30
61814;BME280;73144;-35.164;149.098;2024-02-21T01:41:11;94289.96;;;18.92;63.54
61814;BME280;73144;-35.164;149.098;2024-02-21T01:43:40;94285.59;;;18.95;63.02
61814;BME280;73144;-35.164;149.098;2024-02-21T01:46:09;94284.59;;;18.96;63.34
61814;BME280;73144;-35.164;149.098;2024-02-21T01:48:39;94285.61;;;19.05;62.95
61814;BME280;73144;-35.164;149.098;2024-02-21T01:51:08;94281.43;;;18.74;62.50
61814;BME280;73144;-35.164;149.098;2024-02-21T01:53:40;94284.24;;;18.96;62.61
61814;BME280;73144;-35.164;149.098;2024-02-21T01:56:11;94284.40;;;19.01;63.36
61814;BME280;73144;-35.164;149.098;2024-02-21T01:58:42;94282.16;;;19.10;64.00
61814;BME280;73144;-35.164;149.098;2024-02-21T02:01:12;94276.81;;;19.22;63.26
61814;BME280;73144;-35.164;149.098;2024-02-21T02:03:42;94271.85;;;19.30;63.00
61814;BME280;73144;-35.164;149.098;2024-02-21T02:06:11;94271.00;;;19.09;62.34
61814;BME280;73144;-35.164;149.098;2024-02-21T02:08:40;94271.62;;;19.33;63.05
61814;BME280;73144;-35.164;149.098;2024-02-21T02:11:10;94270.16;;;19.58;61.89
61814;BME280;73144;-35.164;149.098;2024-02-21T02:13:40;94270.12;;;19.51;61.77
61814;BME280;73144;-35.164;149.098;2024-02-21T02:16:09;94272.23;;;19.41;62.06
61814;BME280;73144;-35.164;149.098;2024-02-21T02:18:38;94278.12;;;19.38;63.00
61814;BME280;73144;-35.164;149.098;2024-02-21T02:21:13;94274.42;;;19.22;62.32
61814;BME280;73144;-35.164;149.098;2024-02-21T02:23:44;94275.69;;;19.00;63.27
61814;BME280;73144;-35.164;149.098;2024-02-21T02:26:13;94274.12;;;19.09;63.50
61814;BME280;73144;-35.164;149.098;2024-02-21T02:28:43;94271.54;;;18.81;63.33
61814;BME280;73144;-35.164;149.098;2024-02-21T02:31:12;94272.57;;;19.05;63.40
61814;BME280;73144;-35.164;149.098;2024-02-21T02:33:43;94270.94;;;19.34;62.98
61814;BME280;73144;-35.164;149.098;2024-02-21T02:36:12;94266.59;;;18.98;64.12
61814;BME280;73144;-35.164;149.098;2024-02-21T02:38:42;94262.45;;;19.41;62.84
61814;BME280;73144;-35.164;149.098;2024-02-21T02:41:11;94258.98;;;19.22;62.06
61814;BME280;73144;-35.164;149.098;2024-02-21T02:43:40;94252.75;;;19.14;61.98
61814;BME280;73144;-35.164;149.098;2024-02-21T02:46:10;94251.43;;;19.41;62.62
61814;BME280;73144;-35.164;149.098;2024-02-21T02:48:39;94247.36;;;19.82;63.02
61814;BME280;73144;-35.164;149.098;2024-02-21T02:51:08;94245.14;;;19.51;63.22
61814;BME280;73144;-35.164;149.098;2024-02-21T02:53:38;94238.61;;;19.59;62.48
61814;BME280;73144;-35.164;149.098;2024-02-21T02:56:07;94236.63;;;19.51;62.73
61814;BME280;73144;-35.164;149.098;2024-02-21T02:58:42;94235.47;;;19.59;62.82
61814;BME280;73144;-35.164;149.098;2024-02-21T03:01:11;94233.36;;;19.64;62.43
61814;BME280;73144;-35.164;149.098;2024-02-21T03:03:40;94229.39;;;19.65;62.09
61814;BME280;73144;-35.164;149.098;2024-02-21T03:06:09;94227.07;;;19.90;62.50
61814;BME280;73144;-35.164;149.098;2024-02-21T03:08:39;94229.91;;;19.84;62.09
61814;BME280;73144;-35.164;149.098;2024-02-21T03:11:08;94226.33;;;19.82;61.37
61814;BME280;73144;-35.164;149.098;2024-02-21T03:13:37;94227.05;;;20.09;61.15
61814;BME280;73144;-35.164;149.098;2024-02-21T03:16:07;94224.32;;;19.76;61.75
61814;BME280;73144;-35.164;149.098;2024-02-21T03:18:36;94225.38;;;20.10;63.39
61814;BME280;73144;-35.164;149.098;2024-02-21T03:21:06;94226.39;;;19.81;63.01
61814;BME280;73144;-35.164;149.098;2024-02-21T03:23:35;94219.84;;;19.96;62.63
61814;BME280;73144;-35.164;149.098;2024-02-21T03:26:04;94214.92;;;19.93;62.75
61814;BME280;73144;-35.164;149.098;2024-02-21T03:28:33;94210.33;;;19.98;61.90
61814;BME280;73144;-35.164;149.098;2024-02-21T03:31:03;94208.22;;;19.83;61.60
61814;BME280;73144;-35.164;149.098;2024-02-21T03:33:32;94205.70;;;20.03;60.78
61814;BME280;73144;-35.164;149.098;2024-02-21T03:36:01;94207.29;;;19.80;61.68
61814;BME280;73144;-35.164;149.098;2024-02-21T03:38:31;94197.27;;;19.98;61.50
61814;BME280;73144;-35.164;149.098;2024-02-21T03:41:00;94190.75;;;19.97;61.93
61814;BME280;73144;-35.164;149.098;2024-02-21T03:43:29;94192.57;;;20.04;61.62
61814;BME280;73144;-35.164;149.098;2024-02-21T03:45:59;94188.87;;;19.99;59.65
61814;BME280;73144;-35.164;149.098;2024-02-21T03:48:28;94191.15;;;20.27;60.77
61814;BME280;73144;-35.164;149.098;2024-02-21T03:50:56;94194.17;;;20.68;63.42
61814;BME280;73144;-35.164;149.098;2024-02-21T03:53:26;94196.28;;;20.83;65.98
61814;BME280;73144;-35.164;149.098;2024-02-21T03:55:55;94194.53;;;20.60;69.79
61814;BME280;73144;-35.164;149.098;2024-02-21T03:58:24;94189.06;;;20.19;70.10
61814;BME280;73144;-35.164;149.098;2024-02-21T04:00:55;94183.82;;;20.14;70.34
61814;BME280;73144;-35.164;149.098;2024-02-21T04:03:24;94177.76;;;20.00;70.10
61814;BME280;73144;-35.164;149.098;2024-02-21T04:05:53;94167.71;;;20.05;66.93
61814;BME280;73144;-35.164;149.098;2024-02-21T04:08:23;94168.44;;;19.84;68.29
61814;BME280;73144;-35.164;149.098;2024-02-21T04:10:52;94162.11;;;20.22;68.14
61814;BME280;73144;-35.164;149.098;2024-02-21T04:13:21;94159.28;;;19.74;64.92
61814;BME280;73144;-35.164;149.098;2024-02-21T04:15:50;94155.10;;;19.88;64.19
61814;BME280;73144;-35.164;149.098;2024-02-21T04:18:20;94149.28;;;20.08;64.17
61814;BME280;73144;-35.164;149.098;2024-02-21T04:20:50;94146.26;;;20.07;64.46
61814;BME280;73144;-35.164;149.098;2024-02-21T04:23:18;94143.90;;;20.07;64.20
61814;BME280;73144;-35.164;149.098;2024-02-21T04:25:48;94138.19;;;19.78;64.19
61814;BME280;73144;-35.164;149.098;2024-02-21T04:28:17;94129.25;;;20.09;63.80
61814;BME280;73144;-35.164;149.098;2024-02-21T04:30:46;94127.38;;;20.50;63.13
61814;BME280;73144;-35.164;149.098;2024-02-21T04:33:16;94121.93;;;20.14;63.54
61814;BME280;73144;-35.164;149.098;2024-02-21T04:35:45;94122.31;;;20.41;62.92
61814;BME280;73144;-35.164;149.098;2024-02-21T04:38:14;94119.90;;;20.53;61.47
61814;BME280;73144;-35.164;149.098;2024-02-21T04:40:43;94120.15;;;20.38;61.05
61814;BME280;73144;-35.164;149.098;2024-02-21T04:43:13;94113.71;;;20.47;60.46
61814;BME280;73144;-35.164;149.098;2024-02-21T04:45:42;94108.50;;;20.90;60.85
61814;BME280;73144;-35.164;149.098;2024-02-21T04:48:12;94098.34;;;20.61;58.36
61814;BME280;73144;-35.164;149.098;2024-02-21T04:50:41;94099.57;;;21.23;56.97
61814;BME280;73144;-35.164;149.098;2024-02-21T04:53:11;94090.42;;;21.06;57.20
61814;BME280;73144;-35.164;149.098;2024-02-21T04:55:40;94094.24;;;21.18;57.01
61814;BME280;73144;-35.164;149.098;2024-02-21T04:58:09;94086.97;;;21.42;56.12
61814;BME280;73144;-35.164;149.098;2024-02-21T05:00:39;94083.17;;;21.33;55.94
61814;BME280;73144;-35.164;149.098;2024-02-21T05:03:09;94079.04;;;21.28;56.37
61814;BME280;73144;-35.164;149.098;2024-02-21T05:05:37;94079.26;;;21.50;55.08
61814;BME280;73144;-35.164;149.098;2024-02-21T05:08:07;94084.02;;;21.51;55.30
61814;BME280;73144;-35.164;149.098;2024-02-21T05:10:36;94076.19;;;21.21;55.04
61814;BME280;73144;-35.164;149.098;2024-02-21T05:13:05;94075.40;;;21.71;55.35
61814;BME280;73144;-35.164;149.098;2024-02-21T05:15:34;94071.57;;;21.55;55.49
61814;BME280;73144;-35.164;149.098;2024-02-21T05:18:04;94066.68;;;21.61;54.52
61814;BME280;73144;-35.164;149.098;2024-02-21T05:20:33;94063.31;;;21.61;55.46
61814;BME280;73144;-35.164;149.098;2024-02-21T05:23:02;94068.72;;;21.45;55.99
61814;BME280;73144;-35.164;149.098;2024-02-21T05:25:32;94067.23;;;21.46;55.13
61814;BME280;73144;-35.164;149.098;2024-02-21T05:28:01;94063.22;;;21.45;55.57
61814;BME280;73144;-35.164;149.098;2024-02-21T05:30:30;94061.58;;;21.52;55.90
61814;BME280;73144;-35.164;149.098;2024-02-21T05:33:03;94059.54;;;21.68;55.41
61814;BME280;73144;-35.164;149.098;2024-02-21T05:35:33;94066.96;;;21.60;55.62
61814;BME280;73144;-35.164;149.098;2024-02-21T05:38:02;94065.30;;;21.86;53.76
61814;BME280;73144;-35.164;149.098;2024-02-21T05:40:32;94065.54;;;21.73;53.87
61814;BME280;73144;-35.164;149.098;2024-02-21T05:43:01;94066.38;;;21.79;54.31
61814;BME280;73144;-35.164;149.098;2024-02-21T05:45:30;94056.65;;;21.79;54.49
61814;BME280;73144;-35.164;149.098;2024-02-21T05:47:59;94055.71;;;21.86;54.56
61814;BME280;73144;-35.164;149.098;2024-02-21T05:50:29;94053.39;;;22.07;54.94
61814;BME280;73144;-35.164;149.098;2024-02-21T05:52:58;94058.81;;;21.92;54.82
61814;BME280;73144;-35.164;149.098;2024-02-21T05:55:27;94051.31;;;21.79;54.04
61814;BME280;73144;-35.164;149.098;2024-02-21T05:57:56;94056.61;;;21.81;54.02
61814;BME280;73144;-35.164;149.098;2024-02-21T06:00:26;94060.17;;;21.74;54.48
61814;BME280;73144;-35.164;149.098;2024-02-21T06:02:55;94062.63;;;21.70;53.68
61814;BME280;73144;-35.164;149.098;2024-02-21T06:05:25;94067.26;;;21.86;53.53
61814;BME280;73144;-35.164;149.098;2024-02-21T06:07:54;94057.37;;;21.89;55.09
61814;BME280;73144;-35.164;149.098;2024-02-21T06:10:23;94059.88;;;21.86;55.80
61814;BME280;73144;-35.164;149.098;2024-02-21T06:12:52;94070.86;;;21.79;57.17
61814;BME280;73144;-35.164;149.098;2024-02-21T06:15:22;94070.95;;;21.68;57.92
61814;BME280;73144;-35.164;149.098;2024-02-21T06:17:51;94069.93;;;21.34;57.99
61814;BME280;73144;-35.164;149.098;2024-02-21T06:20:20;94068.08;;;21.28;58.82
61814;BME280;73144;-35.164;149.098;2024-02-21T06:22:49;94069.10;;;21.16;57.90
61814;BME280;73144;-35.164;149.098;2024-02-21T06:25:19;94071.04;;;21.25;57.19
61814;BME280;73144;-35.164;149.098;2024-02-21T06:27:48;94069.24;;;20.84;57.38
61814;BME280;73144;-35.164;149.098;2024-02-21T06:30:17;94065.78;;;21.11;58.42
61814;BME280;73144;-35.164;149.098;2024-02-21T06:32:46;94065.98;;;20.76;58.37
61814;BME280;73144;-35.164;149.098;2024-02-21T06:35:16;94066.12;;;20.99;58.83
61814;BME280;73144;-35.164;149.098;2024-02-21T06:37:45;94070.61;;;21.37;58.48
61814;BME280;73144;-35.164;149.098;2024-02-21T06:40:14;94075.49;;;21.43;58.61
61814;BME280;73144;-35.164;149.098;2024-02-21T06:42:43;94078.52;;;21.55;58.26
61814;BME280;73144;-35.164;149.098;2024-02-21T06:45:13;94077.03;;;21.51;56.66
61814;BME280;73144;-35.164;149.098;2024-02-21T06:47:43;94078.58;;;21.18;55.96
61814;BME280;73144;-35.164;149.098;2024-02-21T06:50:11;94075.82;;;21.18;54.68
61814;BME280;73144;-35.164;149.098;2024-02-21T06:52:41;94069.73;;;21.17;55.30
61814;BME280;73144;-35.164;149.098;2024-02-21T06:55:10;94070.04;;;21.23;55.20
61814;BME280;73144;-35.164;149.098;2024-02-21T06:57:39;94071.06;;;21.22;55.03
61814;BME280;73144;-35.164;149.098;2024-02-21T07:00:09;94070.03;;;21.28;55.76
61814;BME280;73144;-35.164;149.098;2024-02-21T07:02:39;94064.85;;;21.41;56.08
61814;BME280;73144;-35.164;149.098;2024-02-21T07:05:08;94061.77;;;21.45;55.84
61814;BME280;73144;-35.164;149.098;2024-02-21T07:07:37;94061.43;;;21.53;55.73
61814;BME280;73144;-35.164;149.098;2024-02-21T07:10:07;94062.58;;;21.65;55.70
61814;BME280;73144;-35.164;149.098;2024-02-21T07:12:36;94064.58;;;21.49;55.70
61814;BME280;73144;-35.164;149.098;2024-02-21T07:15:06;94064.84;;;21.71;55.55
61814;BME280;73144;-35.164;149.098;2024-02-21T07:17:34;94069.93;;;21.52;56.12
61814;BME280;73144;-35.164;149.098;2024-02-21T07:20:04;94066.20;;;21.46;55.85
61814;BME280;73144;-35.164;149.098;2024-02-21T07:22:33;94071.61;;;21.45;55.60
61814;BME280;73144;-35.164;149.098;2024-02-21T07:25:02;94076.80;;;21.44;55.50
61814;BME280;73144;-35.164;149.098;2024-02-21T07:27:31;94075.96;;;21.44;56.07
61814;BME280;73144;-35.164;149.098;2024-02-21T07:30:01;94079.25;;;21.67;55.96
61814;BME280;73144;-35.164;149.098;2024-02-21T07:32:30;94081.67;;;21.63;56.08
61814;BME280;73144;-35.164;149.098;2024-02-21T07:34:59;94083.82;;;21.54;56.27
61814;BME280;73144;-35.164;149.098;2024-02-21T07:37:29;94088.64;;;21.51;57.11
61814;BME280;73144;-35.164;149.098;2024-02-21T07:39:58;94089.73;;;21.60;56.78
61814;BME280;73144;-35.164;149.098;2024-02-21T07:42:27;94087.15;;;21.60;57.33
61814;BME280;73144;-35.164;149.098;2024-02-21T07:44:56;94091.12;;;21.52;57.28
61814;BME280;73144;-35.164;149.098;2024-02-21T07:47:26;94092.69;;;21.90;57.59
61814;BME280;73144;-35.164;149.098;2024-02-21T07:49:55;94097.27;;;21.81;57.66
61814;BME280;73144;-35.164;149.098;2024-02-21T07:52:24;94095.58;;;22.03;57.42
61814;BME280;73144;-35.164;149.098;2024-02-21T07:54:54;94098.35;;;22.34;56.36
61814;BME280;73144;-35.164;149.098;2024-02-21T07:57:23;94101.11;;;22.01;55.58
61814;BME280;73144;-35.164;149.098;2024-02-21T07:59:52;94099.31;;;22.59;55.07
61814;BME280;73144;-35.164;149.098;2024-02-21T08:02:21;94100.24;;;23.12;53.93
61814;BME280;73144;-35.164;149.098;2024-02-21T08:04:51;94099.36;;;22.99;53.20
61814;BME280;73144;-35.164;149.098;2024-02-21T08:07:20;94102.21;;;22.98;53.29
61814;BME280;73144;-35.164;149.098;2024-02-21T08:09:49;94105.67;;;22.84;53.38
61814;BME280;73144;-35.164;149.098;2024-02-21T08:12:18;94105.13;;;22.51;53.88
61814;BME280;73144;-35.164;149.098;2024-02-21T08:14:48;94104.70;;;22.61;54.04
61814;BME280;73144;-35.164;149.098;2024-02-21T08:17:17;94104.85;;;22.52;54.84
61814;BME280;73144;-35.164;149.098;2024-02-21T08:19:47;94103.61;;;22.06;55.53
61814;BME280;73144;-35.164;149.098;2024-02-21T08:22:16;94103.16;;;21.98;56.18
61814;BME280;73144;-35.164;149.098;2024-02-21T08:24:45;94108.16;;;21.84;56.84
61814;BME280;73144;-35.164;149.098;2024-02-21T08:27:14;94108.58;;;21.34;57.52
61814;BME280;73144;-35.164;149.098;2024-02-21T08:29:43;94106.91;;;21.14;58.17
61814;BME280;73144;-35.164;149.098;2024-02-21T08:32:13;94104.95;;;21.19;58.43
61814;BME280;73144;-35.164;149.098;2024-02-21T08:34:42;94099.87;;;20.90;58.80
61814;BME280;73144;-35.164;149.098;2024-02-21T08:37:11;94103.71;;;20.73;59.28
61814;BME280;73144;-35.164;149.098;2024-02-21T08:39:41;94106.14;;;20.80;59.82
61814;BME280;73144;-35.164;149.098;2024-02-21T08:42:10;94110.15;;;20.63;59.79
61814;BME280;73144;-35.164;149.098;2024-02-21T08:44:40;94112.72;;;20.49;60.14
61814;BME280;73144;-35.164;149.098;2024-02-21T08:47:09;94120.98;;;20.37;60.65
61814;BME280;73144;-35.164;149.098;2024-02-21T08:49:39;94122.98;;;20.47;61.26
61814;BME280;73144;-35.164;149.098;2024-02-21T08:52:08;94124.59;;;20.19;61.54
61814;BME280;73144;-35.164;149.098;2024-02-21T08:54:37;94128.09;;;20.06;63.10
61814;BME280;73144;-35.164;149.098;2024-02-21T08:57:07;94131.72;;;19.94;62.39
61814;BME280;73144;-35.164;149.098;2024-02-21T08:59:36;94140.10;;;20.08;62.37
61814;BME280;73144;-35.164;149.098;2024-02-21T09:02:05;94149.56;;;20.03;62.95
61814;BME280;73144;-35.164;149.098;2024-02-21T09:04:34;94155.04;;;19.71;62.94
61814;BME280;73144;-35.164;149.098;2024-02-21T09:07:03;94156.30;;;20.07;63.44
61814;BME280;73144;-35.164;149.098;2024-02-21T09:09:33;94156.03;;;19.77;63.66
61814;BME280;73144;-35.164;149.098;2024-02-21T09:12:02;94155.09;;;19.50;63.70
61814;BME280;73144;-35.164;149.098;2024-02-21T09:14:31;94155.74;;;19.64;63.95
61814;BME280;73144;-35.164;149.098;2024-02-21T09:17:00;94160.72;;;19.81;64.09
61814;BME280;73144;-35.164;149.098;2024-02-21T09:19:30;94164.17;;;19.74;64.33
61814;BME280;73144;-35.164;149.098;2024-02-21T09:21:59;94174.74;;;19.69;64.24
61814;BME280;73144;-35.164;149.098;2024-02-21T09:24:29;94180.56;;;19.63;64.29
61814;BME280;73144;-35.164;149.098;2024-02-21T09:26:57;94187.03;;;19.57;64.51
61814;BME280;73144;-35.164;149.098;2024-02-21T09:29:27;94191.29;;;19.29;64.72
61814;BME280;73144;-35.164;149.098;2024-02-21T09:31:56;94189.05;;;19.45;64.75
61814;BME280;73144;-35.164;149.098;2024-02-21T09:34:25;94191.16;;;19.45;64.79
61814;BME280;73144;-35.164;149.098;2024-02-21T09:36:55;94198.18;;;19.37;65.04
61814;BME280;73144;-35.164;149.098;2024-02-21T09:39:24;94202.18;;;19.29;65.32
61814;BME280;73144;-35.164;149.098;2024-02-21T09:41:59;94205.22;;;19.24;65.49
61814;BME280;73144;-35.164;149.098;2024-02-21T09:44:36;94201.77;;;19.24;65.53
61814;BME280;73144;-35.164;149.098;2024-02-21T09:47:10;94200.36;;;19.48;65.61
61814;BME280;73144;-35.164;149.098;2024-02-21T09:49:41;94202.98;;;19.16;65.68
61814;BME280;73144;-35.164;149.098;2024-02-21T09:52:11;94212.95;;;19.17;65.64
61814;BME280;73144;-35.164;149.098;2024-02-21T09:54:42;94222.31;;;19.12;65.78
61814;BME280;73144;-35.164;149.098;2024-02-21T09:57:11;94228.93;;;19.31;66.04
61814;BME280;73144;-35.164;149.098;2024-02-21T09:59:40;94231.57;;;19.03;66.07
61814;BME280;73144;-35.164;149.098;2024-02-21T10:02:10;94227.97;;;19.03;66.07
61814;BME280;73144;-35.164;149.098;2024-02-21T10:04:40;94224.64;;;18.99;66.17
61814;BME280;73144;-35.164;149.098;2024-02-21T10:07:09;94223.74;;;18.95;66.28
61814;BME280;73144;-35.164;149.098;2024-02-21T10:09:39;94225.56;;;19.19;66.36
61814;BME280;73144;-35.164;149.098;2024-02-21T10:12:10;94232.95;;;19.13;66.52
61814;BME280;73144;-35.164;149.098;2024-02-21T10:14:39;94234.14;;;18.83;66.63
61814;BME280;73144;-35.164;149.098;2024-02-21T10:17:08;94234.69;;;18.79;66.73
61814;BME280;73144;-35.164;149.098;2024-02-21T10:19:38;94235.99;;;18.74;66.85
61814;BME280;73144;-35.164;149.098;2024-02-21T10:22:08;94237.31;;;18.97;66.91
61814;BME280;73144;-35.164;149.098;2024-02-21T10:24:37;94238.53;;;18.70;66.86
61814;BME280;73144;-35.164;149.098;2024-02-21T10:27:08;94244.60;;;18.94;66.90
61814;BME280;73144;-35.164;149.098;2024-02-21T10:29:37;94243.55;;;18.92;67.06
61814;BME280;73144;-35.164;149.098;2024-02-21T10:32:08;94245.94;;;18.89;67.09
61814;BME280;73144;-35.164;149.098;2024-02-21T10:34:38;94248.60;;;18.81;67.27
61814;BME280;73144;-35.164;149.098;2024-02-21T10:37:08;94255.50;;;18.78;67.35
61814;BME280;73144;-35.164;149.098;2024-02-21T10:39:39;94260.85;;;18.75;67.42
61814;BME280;73144;-35.164;149.098;2024-02-21T10:42:10;94258.62;;;18.71;67.48
61814;BME280;73144;-35.164;149.098;2024-02-21T10:44:40;94257.98;;;18.90;67.58
61814;BME280;73144;-35.164;149.098;2024-02-21T10:47:10;94257.90;;;18.65;67.58
61814;BME280;73144;-35.164;149.098;2024-02-21T10:49:40;94259.10;;;18.63;67.63
61814;BME280;73144;-35.164;149.098;2024-02-21T10:52:15;94259.74;;;18.32;67.63
61814;BME280;73144;-35.164;149.098;2024-02-21T10:54:51;94263.48;;;18.60;67.54
61814;BME280;73144;-35.164;149.098;2024-02-21T10:57:22;94263.67;;;18.75;67.75
61814;BME280;73144;-35.164;149.098;2024-02-21T10:59:53;94269.83;;;18.51;67.78
61814;BME280;73144;-35.164;149.098;2024-02-21T11:02:23;94267.57;;;18.70;67.68
61814;BME280;73144;-35.164;149.098;2024-02-21T11:04:53;94266.21;;;18.63;67.90
61814;BME280;73144;-35.164;149.098;2024-02-21T11:07:23;94267.28;;;18.41;67.91
61814;BME280;73144;-35.164;149.098;2024-02-21T11:09:53;94272.87;;;18.37;67.86
61814;BME280;73144;-35.164;149.098;2024-02-21T11:12:23;94269.66;;;18.55;67.86
61814;BME280;73144;-35.164;149.098;2024-02-21T11:14:52;94264.54;;;18.53;67.84
61814;BME280;73144;-35.164;149.098;2024-02-21T11:17:22;94264.11;;;18.49;67.98
61814;BME280;73144;-35.164;149.098;2024-02-21T11:19:51;94262.21;;;18.46;67.94
61814;BME280;73144;-35.164;149.098;2024-02-21T11:22:21;94261.01;;;18.46;67.98
61814;BME280;73144;-35.164;149.098;2024-02-21T11:24:51;94263.01;;;18.41;67.85
61814;BME280;73144;-35.164;149.098;2024-02-21T11:27:21;94260.72;;;18.12;68.10
61814;BME280;73144;-35.164;149.098;2024-02-21T11:29:54;94255.41;;;18.34;68.07
61814;BME280;73144;-35.164;149.098;2024-02-21T11:32:24;94253.89;;;18.13;68.00
61814;BME280;73144;-35.164;149.098;2024-02-21T11:34:58;94251.31;;;18.29;68.07
61814;BME280;73144;-35.164;149.098;2024-02-21T11:37:27;94254.34;;;18.03;68.30
61814;BME280;73144;-35.164;149.098;2024-02-21T11:39:57;94252.95;;;18.24;68.19
61814;BME280;73144;-35.164;149.098;2024-02-21T11:42:27;94251.88;;;18.24;68.17
61814;BME280;73144;-35.164;149.098;2024-02-21T11:44:56;94256.56;;;18.19;68.19
61814;BME280;73144;-35.164;149.098;2024-02-21T11:47:25;94254.87;;;18.20;68.18
61814;BME280;73144;-35.164;149.098;2024-02-21T11:49:56;94258.74;;;18.41;68.39
61814;BME280;73144;-35.164;149.098;2024-02-21T11:52:26;94259.23;;;18.12;68.34
61814;BME280;73144;-35.164;149.098;2024-02-21T11:54:55;94254.57;;;18.11;68.25
61814;BME280;73144;-35.164;149.098;2024-02-21T11:57:24;94252.18;;;18.06;68.44
61814;BME280;73144;-35.164;149.098;2024-02-21T11:59:53;94251.52;;;18.04;68.55
61814;BME280;73144;-35.164;149.098;2024-02-21T12:02:22;94252.37;;;17.99;68.61
61814;BME280;73144;-35.164;149.098;2024-02-21T12:04:51;94256.58;;;17.97;68.70
61814;BME280;73144;-35.164;149.098;2024-02-21T12:07:22;94258.93;;;17.95;68.69
61814;BME280;73144;-35.164;149.098;2024-02-21T12:09:52;94259.74;;;17.94;68.73
61814;BME280;73144;-35.164;149.098;2024-02-21T12:12:21;94259.78;;;17.91;68.74
61814;BME280;73144;-35.164;149.098;2024-02-21T12:14:56;94260.18;;;17.88;68.79
61814;BME280;73144;-35.164;149.098;2024-02-21T12:17:25;94258.08;;;18.14;68.69
61814;BME280;73144;-35.164;149.098;2024-02-21T12:19:54;94257.47;;;17.85;68.65
61814;BME280;73144;-35.164;149.098;2024-02-21T12:22:25;94254.90;;;18.07;68.65
61814;BME280;73144;-35.164;149.098;2024-02-21T12:24:54;94257.23;;;18.04;68.76
61814;BME280;73144;-35.164;149.098;2024-02-21T12:27:24;94260.66;;;17.76;68.79
61814;BME280;73144;-35.164;149.098;2024-02-21T12:29:53;94259.95;;;17.76;68.85
61814;BME280;73144;-35.164;149.098;2024-02-21T12:32:23;94261.77;;;17.96;68.98
61814;BME280;73144;-35.164;149.098;2024-02-21T12:34:52;94261.55;;;17.67;69.02
61814;BME280;73144;-35.164;149.098;2024-02-21T12:37:24;94259.98;;;17.95;69.05
61814;BME280;73144;-35.164;149.098;2024-02-21T12:39:53;94255.62;;;17.66;69.04
61814;BME280;73144;-35.164;149.098;2024-02-21T12:42:22;94250.06;;;17.64;69.15